Time;durP1;ratioP1;P1;durP2;ratioP2;P2;SDS_P1;SDS_P2;PMS_P1;PMS_P2;Temp;Humidity;BMP_temperature;BMP_pressure;BME280_temperature;BME280_humidity;BME280_pressure;Samples;Min_cycle;Max_cycle;Signal;HPM_P1;HPM_P2
2022/01/27 00:05:52;;;;;;;37.35;18.23;;;6.70;99.90;;;;;;4986092;28;20181;-63
2022/01/27 00:08:30;;;;;;;42.15;18.63;;;6.70;99.90;;;;;;4991925;28;20100;-63
2022/01/27 00:11:01;;;;;;;35.33;19.02;;;6.60;99.90;;;;;;4996280;28;20131;-63
2022/01/27 00:13:31;;;;;;;37.70;18.02;;;6.60;99.90;;;;;;4990749;28;20046;-62
2022/01/27 00:16:13;;;;;;;45.08;18.80;;;6.60;99.90;;;;;;4993435;28;20080;-63
2022/01/27 00:18:40;;;;;;;37.10;18.23;;;6.60;99.90;;;;;;4995691;28;20448;-63
2022/01/27 00:21:06;;;;;;;48.80;19.67;;;6.60;99.90;;;;;;4997881;28;20072;-63
2022/01/27 00:23:33;;;;;;;43.03;19.27;;;6.60;99.90;;;;;;4998774;28;20494;-63
2022/01/27 00:25:59;;;;;;;40.22;17.50;;;6.60;99.90;;;;;;5009060;28;20107;-62
2022/01/27 00:28:25;;;;;;;44.67;18.10;;;6.60;99.90;;;;;;4998846;28;20050;-63
2022/01/27 00:30:50;;;;;;;39.60;18.80;;;6.60;99.90;;;;;;4990568;28;20128;-63
2022/01/27 00:33:16;;;;;;;41.22;18.90;;;6.60;99.90;;;;;;4994029;28;20054;-63
2022/01/27 00:35:41;;;;;;;41.38;17.15;;;6.60;99.90;;;;;;4998641;28;20042;-63
2022/01/27 00:38:07;;;;;;;41.38;18.17;;;6.60;99.90;;;;;;4988387;28;20047;-63
2022/01/27 00:40:32;;;;;;;49.05;17.95;;;6.60;99.90;;;;;;4996249;28;20053;-63
2022/01/27 00:42:58;;;;;;;43.10;18.85;;;6.50;99.90;;;;;;5000295;28;20042;-63
2022/01/27 00:45:25;;;;;;;36.00;17.45;;;6.60;99.90;;;;;;4999375;28;20046;-63
2022/01/27 00:47:51;;;;;;;34.75;18.10;;;6.60;99.90;;;;;;4992860;28;20042;-63
2022/01/27 00:50:18;;;;;;;34.63;18.42;;;6.50;99.90;;;;;;5007713;28;20053;-62
2022/01/27 00:52:50;;;;;;;34.55;18.23;;;6.50;99.90;;;;;;5008880;28;20401;-63
2022/01/27 00:55:16;;;;;;;35.47;19.00;;;6.50;99.90;;;;;;5008232;28;20068;-63
2022/01/27 01:00:24;;;;;;;34.15;16.92;;;6.50;99.90;;;;;;5004196;28;20481;-63
2022/01/27 01:03:36;;;;;;;36.80;18.90;;;6.50;99.90;;;;;;4999140;28;20058;-63
2022/01/27 01:14:15;;;;;;;48.38;20.80;;;6.50;99.90;;;;;;4989566;28;20237;-63
2022/01/27 01:16:18;;;;;;;38.15;20.00;;;6.40;99.90;;;;;;4991425;28;20513;-63
2022/01/27 01:21:31;;;;;;;37.33;19.48;;;6.40;99.90;;;;;;4996232;28;20486;-63
2022/01/27 01:29:49;;;;;;;38.50;19.80;;;6.30;99.90;;;;;;4988377;28;20133;-63
2022/01/27 01:32:34;;;;;;;43.50;19.88;;;6.30;99.90;;;;;;5003108;28;20045;-63
2022/01/27 01:35:01;;;;;;;39.63;20.63;;;6.30;99.90;;;;;;4988387;28;20398;-63
2022/01/27 01:37:26;;;;;;;44.17;20.10;;;6.30;99.90;;;;;;5002099;28;20050;-63
2022/01/27 01:39:52;;;;;;;39.60;20.67;;;6.30;99.90;;;;;;4997847;28;20042;-62
2022/01/27 01:42:17;;;;;;;43.20;20.63;;;6.30;99.90;;;;;;4993446;28;20081;-62
2022/01/27 01:44:45;;;;;;;38.95;20.55;;;6.30;99.90;;;;;;4990359;28;20084;-63
2022/01/27 01:47:11;;;;;;;39.75;20.58;;;6.30;99.90;;;;;;4999367;28;20038;-63
2022/01/27 01:49:36;;;;;;;37.53;20.30;;;6.30;99.90;;;;;;4990386;28;20067;-63
2022/01/27 01:52:07;;;;;;;37.13;20.60;;;6.30;99.90;;;;;;5000834;28;20081;-63
2022/01/27 01:54:33;;;;;;;51.92;22.42;;;6.20;99.90;;;;;;4988379;28;20504;-63
2022/01/27 01:56:59;;;;;;;38.83;20.70;;;6.20;99.90;;;;;;4994914;28;20041;-63
2022/01/27 01:59:25;;;;;;;51.10;21.20;;;6.20;99.90;;;;;;4989902;28;20453;-63
2022/01/27 02:01:51;;;;;;;46.05;22.85;;;6.20;99.90;;;;;;5001158;28;20038;-63
2022/01/27 02:04:17;;;;;;;41.55;20.30;;;6.30;99.90;;;;;;5007043;28;20077;-63
2022/01/27 02:06:49;;;;;;;39.08;21.65;;;6.30;99.90;;;;;;5001597;28;20453;-63
2022/01/27 02:09:32;;;;;;;44.90;21.27;;;6.30;99.90;;;;;;4992542;28;20128;-63
2022/01/27 02:20:11;;;;;;;44.60;21.52;;;6.50;99.90;;;;;;4991506;28;20047;-63
2022/01/27 02:22:37;;;;;;;37.47;20.75;;;6.50;99.90;;;;;;5006875;28;20085;-63
2022/01/27 02:25:04;;;;;;;48.53;23.65;;;6.50;99.90;;;;;;5002485;28;20042;-63
2022/01/27 02:27:30;;;;;;;45.60;21.92;;;6.50;99.90;;;;;;5000627;28;20048;-63
2022/01/27 02:29:56;;;;;;;40.03;20.48;;;6.50;99.90;;;;;;5007683;28;20053;-63
2022/01/27 02:32:22;;;;;;;39.38;21.33;;;6.60;99.90;;;;;;5005794;28;20042;-62
2022/01/27 02:34:48;;;;;;;41.05;22.30;;;6.60;99.90;;;;;;4992477;28;20534;-63
2022/01/27 02:37:14;;;;;;;42.42;21.15;;;6.60;99.90;;;;;;4993613;28;20045;-63
2022/01/27 02:39:40;;;;;;;36.88;18.48;;;6.60;99.90;;;;;;5000031;28;20502;-63
2022/01/27 02:42:11;;;;;;;43.72;21.25;;;6.60;99.90;;;;;;5001877;28;20042;-63
2022/01/27 02:44:45;;;;;;;38.53;20.92;;;6.60;99.90;;;;;;4995630;28;20050;-63
2022/01/27 02:47:12;;;;;;;42.83;21.33;;;6.60;99.90;;;;;;5003806;28;20056;-62
2022/01/27 02:49:38;;;;;;;46.70;20.98;;;6.70;99.90;;;;;;5008680;28;20050;-63
2022/01/27 02:52:04;;;;;;;37.80;21.35;;;6.70;99.90;;;;;;5003467;28;20400;-63
2022/01/27 02:54:30;;;;;;;37.95;20.33;;;6.70;99.90;;;;;;4991523;28;20038;-63
2022/01/27 02:56:55;;;;;;;40.00;21.58;;;6.70;99.90;;;;;;5000235;28;20052;-63
2022/01/27 02:59:21;;;;;;;39.35;19.00;;;6.70;99.90;;;;;;4997842;28;20134;-63
2022/01/27 03:01:48;;;;;;;42.83;20.25;;;6.80;99.90;;;;;;5003817;28;20136;-63
2022/01/27 03:04:15;;;;;;;31.27;17.98;;;6.70;99.90;;;;;;4997595;28;20058;-63
2022/01/27 03:06:41;;;;;;;35.25;18.15;;;6.70;99.90;;;;;;4991535;28;20047;-63
2022/01/27 03:09:06;;;;;;;46.58;20.38;;;6.80;99.90;;;;;;4990802;28;20053;-63
2022/01/27 03:11:45;;;;;;;38.78;19.35;;;6.80;99.90;;;;;;4992975;28;20464;-63
2022/01/27 03:14:13;;;;;;;41.70;18.60;;;6.80;99.90;;;;;;5002582;28;20042;-63
2022/01/27 03:16:40;;;;;;;45.97;18.10;;;6.80;99.90;;;;;;5006549;28;20446;-63
2022/01/27 03:19:05;;;;;;;36.58;15.82;;;6.80;99.90;;;;;;4993107;28;20058;-63
2022/01/27 03:21:31;;;;;;;46.50;20.27;;;6.80;99.90;;;;;;4998637;28;20050;-63
2022/01/27 03:23:57;;;;;;;36.10;18.00;;;6.80;99.90;;;;;;4998405;28;20430;-63
2022/01/27 03:26:23;;;;;;;55.97;18.50;;;6.80;99.90;;;;;;4995114;28;20602;-63
2022/01/27 03:28:49;;;;;;;47.72;18.42;;;6.80;99.90;;;;;;5002360;28;20065;-63
2022/01/27 03:31:16;;;;;;;34.20;17.25;;;6.80;99.90;;;;;;5004277;28;20054;-63
2022/01/27 03:33:43;;;;;;;44.58;17.00;;;6.90;99.90;;;;;;4996156;28;20038;-63
2022/01/27 03:36:09;;;;;;;44.20;18.80;;;6.90;99.90;;;;;;5001487;28;20050;-63
2022/01/27 03:38:35;;;;;;;36.38;17.40;;;6.90;99.90;;;;;;5002912;28;20716;-63
2022/01/27 03:41:05;;;;;;;34.30;15.52;;;6.90;99.90;;;;;;4997904;28;20049;-63
2022/01/27 03:43:30;;;;;;;32.33;17.08;;;6.90;99.90;;;;;;4999894;28;20669;-63
2022/01/27 03:45:56;;;;;;;40.08;16.17;;;7.00;99.90;;;;;;4990986;28;20064;-63
2022/01/27 03:48:21;;;;;;;40.13;16.40;;;7.00;99.90;;;;;;5006939;28;20033;-63
2022/01/27 03:50:47;;;;;;;40.97;15.93;;;7.00;99.90;;;;;;4999391;28;20456;-63
2022/01/27 03:53:14;;;;;;;42.78;16.40;;;7.00;99.90;;;;;;4992443;28;20057;-62
2022/01/27 03:55:40;;;;;;;47.38;18.60;;;7.00;99.90;;;;;;5006114;28;20033;-63
2022/01/27 03:58:06;;;;;;;46.72;15.85;;;7.00;99.90;;;;;;4990454;28;20109;-63
2022/01/27 04:00:32;;;;;;;36.97;15.20;;;7.00;99.90;;;;;;4998566;28;20046;-63
2022/01/27 04:03:10;;;;;;;44.03;14.05;;;7.00;99.90;;;;;;4994685;28;20540;-63
2022/01/27 04:05:39;;;;;;;37.88;15.88;;;7.10;99.90;;;;;;4998962;28;20058;-63
2022/01/27 04:08:08;;;;;;;47.20;16.63;;;7.10;99.90;;;;;;5009941;28;20103;-63
2022/01/27 04:10:35;;;;;;;33.95;15.68;;;7.10;99.90;;;;;;5002465;28;20092;-63
2022/01/27 04:13:02;;;;;;;39.22;17.85;;;7.10;99.90;;;;;;5000399;28;20038;-62
2022/01/27 04:15:28;;;;;;;38.85;15.52;;;7.10;99.90;;;;;;5000154;28;20672;-63
2022/01/27 04:17:54;;;;;;;36.78;13.57;;;7.10;99.90;;;;;;5009040;28;20049;-63
2022/01/27 04:20:20;;;;;;;38.95;15.63;;;7.10;99.90;;;;;;4998895;28;20042;-63
2022/01/27 04:22:46;;;;;;;40.40;14.98;;;7.10;99.90;;;;;;4997984;28;20157;-63
2022/01/27 04:25:13;;;;;;;38.97;15.63;;;7.10;99.90;;;;;;5005442;28;20073;-62
2022/01/27 04:27:44;;;;;;;36.85;14.70;;;7.10;99.90;;;;;;4993809;28;20057;-63
2022/01/27 04:30:15;;;;;;;36.50;15.73;;;7.10;99.90;;;;;;4988811;28;20092;-63
2022/01/27 04:32:58;;;;;;;41.50;15.82;;;7.10;99.90;;;;;;5005919;28;20049;-63
2022/01/27 04:35:27;;;;;;;42.35;15.10;;;7.10;99.90;;;;;;4991847;28;20482;-63
2022/01/27 04:40:38;;;;;;;46.67;16.58;;;7.10;99.90;;;;;;4996794;28;20057;-63
2022/01/27 04:43:17;;;;;;;41.33;15.70;;;7.10;99.90;;;;;;4992315;28;20050;-63
2022/01/27 04:48:15;;;;;;;30.92;14.75;;;7.10;99.90;;;;;;4989495;28;20125;-63
2022/01/27 04:50:41;;;;;;;35.53;15.02;;;7.20;99.90;;;;;;4989120;28;20066;-63
2022/01/27 04:53:11;;;;;;;42.70;17.05;;;7.20;99.90;;;;;;4994045;28;20188;-63
2022/01/27 04:55:37;;;;;;;41.85;15.68;;;7.10;99.90;;;;;;4990260;28;20137;-63
2022/01/27 04:58:13;;;;;;;49.83;15.75;;;7.10;99.90;;;;;;4991298;28;20129;-63
2022/01/27 05:00:39;;;;;;;44.50;18.50;;;7.10;99.90;;;;;;5008896;28;20060;-63
2022/01/27 05:03:15;;;;;;;37.90;16.85;;;7.10;99.90;;;;;;5007788;28;20046;-63
2022/01/27 05:05:40;;;;;;;42.03;15.23;;;7.10;99.90;;;;;;4994579;28;20126;-62
2022/01/27 05:08:10;;;;;;;41.80;16.48;;;7.10;99.90;;;;;;4989448;28;20046;-63
2022/01/27 05:10:36;;;;;;;42.33;16.35;;;7.10;99.90;;;;;;4989911;28;20621;-63
2022/01/27 05:13:16;;;;;;;44.58;15.77;;;7.20;99.90;;;;;;4995076;28;20333;-63
2022/01/27 05:15:45;;;;;;;40.67;15.13;;;7.20;99.90;;;;;;5003812;28;20065;-63
2022/01/27 05:18:12;;;;;;;45.00;15.23;;;7.20;99.90;;;;;;5008711;28;20050;-62
2022/01/27 05:20:38;;;;;;;46.65;17.33;;;7.20;99.90;;;;;;4997408;28;20054;-63
2022/01/27 05:23:04;;;;;;;51.00;16.25;;;7.20;99.90;;;;;;4991309;28;20077;-63
2022/01/27 05:25:29;;;;;;;38.30;15.52;;;7.20;99.90;;;;;;5006939;28;20478;-63
2022/01/27 05:27:55;;;;;;;40.10;17.85;;;7.20;99.90;;;;;;5008049;28;20054;-63
2022/01/27 05:30:21;;;;;;;39.17;16.45;;;7.10;99.90;;;;;;4997011;28;20054;-63
2022/01/27 05:32:46;;;;;;;31.67;14.73;;;7.10;99.90;;;;;;4995973;28;20045;-63
2022/01/27 05:35:12;;;;;;;48.45;17.63;;;7.10;99.90;;;;;;4998133;28;20116;-63
2022/01/27 05:37:38;;;;;;;39.97;16.83;;;7.10;99.90;;;;;;4989481;28;20548;-63
2022/01/27 05:40:04;;;;;;;50.85;18.00;;;7.10;99.90;;;;;;4987910;28;20054;-63
2022/01/27 05:42:29;;;;;;;44.08;16.40;;;7.10;99.90;;;;;;5004243;28;20038;-62
2022/01/27 05:44:55;;;;;;;54.20;20.10;;;7.10;99.90;;;;;;4995980;28;20501;-62
2022/01/27 05:47:20;;;;;;;50.85;18.77;;;7.10;99.90;;;;;;4999171;28;20042;-63
2022/01/27 05:49:46;;;;;;;44.83;19.13;;;7.10;99.90;;;;;;4994222;28;20054;-63
2022/01/27 05:52:12;;;;;;;54.17;17.75;;;7.10;99.90;;;;;;4989944;28;20045;-63
2022/01/27 05:54:37;;;;;;;52.33;18.17;;;7.00;99.90;;;;;;4994186;28;20047;-63
2022/01/27 05:57:03;;;;;;;55.28;19.55;;;7.00;99.90;;;;;;5006477;28;20080;-62
2022/01/27 05:59:29;;;;;;;57.92;20.75;;;7.00;99.90;;;;;;5004130;28;20564;-63
2022/01/27 06:01:55;;;;;;;57.83;18.58;;;7.10;99.90;;;;;;4995953;28;20042;-63
2022/01/27 06:04:20;;;;;;;73.40;20.95;;;7.00;99.90;;;;;;5002449;28;20061;-63
2022/01/27 06:06:46;;;;;;;59.13;20.17;;;7.00;99.90;;;;;;4994547;28;20034;-62
2022/01/27 06:09:11;;;;;;;58.67;18.65;;;7.00;99.90;;;;;;4994165;28;20185;-63
2022/01/27 06:11:37;;;;;;;46.65;16.13;;;7.00;99.90;;;;;;4994391;28;20091;-63
2022/01/27 06:14:03;;;;;;;43.85;17.00;;;7.00;99.90;;;;;;5000691;28;20087;-63
2022/01/27 06:16:29;;;;;;;52.25;18.67;;;7.10;99.90;;;;;;4994458;28;20054;-63
2022/01/27 06:18:54;;;;;;;54.85;19.13;;;7.10;99.90;;;;;;5001076;28;20043;-64
2022/01/27 06:21:20;;;;;;;52.63;17.30;;;7.10;99.90;;;;;;5011588;28;20571;-63
2022/01/27 06:23:45;;;;;;;56.25;18.48;;;7.10;99.90;;;;;;4993488;28;20038;-63
2022/01/27 06:26:11;;;;;;;55.10;18.35;;;7.10;99.90;;;;;;4992199;28;20521;-63
2022/01/27 06:28:37;;;;;;;58.90;17.63;;;7.10;99.90;;;;;;4992614;28;20058;-63
2022/01/27 06:31:02;;;;;;;52.90;18.30;;;7.10;99.90;;;;;;4992792;28;20050;-63
2022/01/27 06:33:28;;;;;;;53.17;17.95;;;7.10;99.90;;;;;;5008514;28;20038;-63
2022/01/27 06:35:53;;;;;;;51.30;17.55;;;7.10;99.90;;;;;;4991927;28;20081;-63
2022/01/27 06:38:19;;;;;;;48.05;19.52;;;7.10;99.90;;;;;;4990585;28;20042;-63
2022/01/27 06:40:45;;;;;;;54.72;17.67;;;7.10;99.90;;;;;;4993648;28;20098;-63
2022/01/27 06:43:16;;;;;;;74.28;20.92;;;7.10;99.90;;;;;;5000182;28;20060;-62
2022/01/27 06:45:42;;;;;;;51.42;17.30;;;7.10;99.90;;;;;;4994954;28;20058;-63
2022/01/27 06:48:07;;;;;;;49.13;17.80;;;7.00;99.90;;;;;;4993228;28;20604;-62
2022/01/27 06:50:36;;;;;;;53.05;17.55;;;7.10;99.90;;;;;;4995860;28;20046;-62
2022/01/27 06:53:02;;;;;;;54.13;15.93;;;7.10;99.90;;;;;;5003144;28;20045;-63
2022/01/27 06:55:28;;;;;;;53.90;16.48;;;7.10;99.90;;;;;;4996500;28;20050;-63
2022/01/27 06:57:53;;;;;;;48.30;16.90;;;7.10;99.90;;;;;;4991064;28;20506;-63
2022/01/27 07:00:19;;;;;;;50.90;15.45;;;7.10;99.90;;;;;;4992343;28;20039;-63
2022/01/27 07:02:45;;;;;;;63.45;17.73;;;7.10;99.90;;;;;;4999667;28;20414;-63
2022/01/27 07:05:14;;;;;;;49.00;16.55;;;7.10;99.90;;;;;;4991270;28;20047;-63
2022/01/27 07:07:40;;;;;;;52.40;15.80;;;7.10;99.90;;;;;;4999832;28;20101;-63
2022/01/27 07:10:06;;;;;;;44.88;14.93;;;7.20;99.90;;;;;;4993064;28;20538;-63
2022/01/27 07:12:32;;;;;;;54.55;16.08;;;7.20;99.90;;;;;;4990939;28;20108;-63
2022/01/27 07:14:58;;;;;;;43.45;14.73;;;7.20;99.90;;;;;;4994370;28;20038;-63
2022/01/27 07:17:23;;;;;;;44.97;13.95;;;7.20;99.90;;;;;;4996475;28;20218;-63
2022/01/27 07:19:49;;;;;;;51.35;15.65;;;7.30;99.90;;;;;;4994765;28;20172;-63
2022/01/27 07:22:15;;;;;;;43.83;13.07;;;7.30;99.90;;;;;;4998516;28;20042;-63
2022/01/27 07:24:40;;;;;;;46.65;14.82;;;7.30;99.90;;;;;;4992734;28;20050;-63
2022/01/27 07:27:07;;;;;;;40.42;12.82;;;7.40;99.90;;;;;;4988516;28;20089;-63
2022/01/27 07:29:32;;;;;;;39.83;12.45;;;7.40;99.90;;;;;;4995675;28;20058;-63
2022/01/27 07:31:58;;;;;;;38.45;12.23;;;7.40;99.90;;;;;;4990502;28;20047;-64
2022/01/27 07:34:23;;;;;;;42.70;13.38;;;7.40;99.90;;;;;;4995807;28;20034;-64
2022/01/27 07:36:54;;;;;;;41.97;11.85;;;7.50;99.90;;;;;;5008739;28;20569;-63
2022/01/27 07:39:20;;;;;;;42.90;12.15;;;7.50;99.90;;;;;;4996135;28;20042;-64
2022/01/27 07:41:45;;;;;;;38.92;11.30;;;7.50;99.90;;;;;;4996105;28;20587;-63
2022/01/27 07:44:11;;;;;;;40.47;11.82;;;7.50;99.90;;;;;;5009283;28;20050;-64
2022/01/27 07:46:37;;;;;;;38.85;11.45;;;7.50;99.90;;;;;;5004440;28;20054;-64
2022/01/27 07:49:03;;;;;;;35.28;10.43;;;7.50;99.90;;;;;;4994648;28;20391;-64
2022/01/27 07:51:28;;;;;;;35.00;9.82;;;7.50;99.90;;;;;;5001817;28;20097;-64
2022/01/27 07:53:54;;;;;;;43.22;12.10;;;7.50;99.90;;;;;;4990968;28;20144;-64
2022/01/27 07:56:20;;;;;;;47.00;11.88;;;7.50;99.90;;;;;;4991766;28;20053;-64
2022/01/27 07:58:45;;;;;;;35.55;10.63;;;7.50;99.90;;;;;;4998469;28;20044;-64
2022/01/27 08:01:11;;;;;;;35.65;12.27;;;7.60;99.90;;;;;;5003308;28;20664;-64
2022/01/27 08:03:37;;;;;;;36.97;10.93;;;7.50;99.90;;;;;;5003699;28;20049;-63
2022/01/27 08:06:06;;;;;;;33.58;9.77;;;7.60;99.90;;;;;;5003539;28;20038;-63
2022/01/27 08:08:32;;;;;;;26.08;8.75;;;7.60;99.90;;;;;;5009301;28;20050;-65
2022/01/27 08:10:58;;;;;;;37.22;9.85;;;7.60;99.90;;;;;;5005943;28;20056;-64
2022/01/27 08:13:24;;;;;;;38.17;9.65;;;7.70;99.90;;;;;;4991676;28;20069;-64
2022/01/27 08:15:50;;;;;;;32.40;9.27;;;7.70;99.90;;;;;;5004586;28;20046;-64
2022/01/27 08:18:15;;;;;;;39.78;9.60;;;7.70;99.90;;;;;;4990203;28;20069;-64
2022/01/27 08:20:41;;;;;;;25.00;8.20;;;7.80;99.90;;;;;;4990904;28;20076;-64
2022/01/27 08:23:07;;;;;;;37.42;9.60;;;7.80;99.90;;;;;;4994045;28;20116;-64
2022/01/27 08:25:33;;;;;;;35.38;10.07;;;7.80;99.90;;;;;;4996235;28;20045;-64
2022/01/27 08:28:02;;;;;;;24.25;9.57;;;7.80;99.90;;;;;;4989625;28;20525;-64
2022/01/27 08:30:35;;;;;;;32.58;8.73;;;7.80;99.90;;;;;;4989869;28;20101;-64
2022/01/27 08:33:05;;;;;;;37.97;11.00;;;7.80;99.90;;;;;;4989419;28;20080;-64
2022/01/27 08:35:32;;;;;;;33.67;8.30;;;7.90;99.90;;;;;;4997498;28;20511;-64
2022/01/27 08:37:57;;;;;;;32.35;8.48;;;7.90;99.90;;;;;;4988596;28;20050;-64
2022/01/27 08:40:25;;;;;;;32.15;9.10;;;7.90;99.90;;;;;;4989899;28;20421;-64
2022/01/27 08:42:51;;;;;;;32.53;9.40;;;7.90;99.90;;;;;;4989818;28;20565;-64
2022/01/27 08:45:19;;;;;;;31.73;8.77;;;7.90;99.90;;;;;;4989764;28;20293;-64
2022/01/27 08:47:45;;;;;;;28.77;9.32;;;7.90;99.90;;;;;;4990365;28;20550;-64
2022/01/27 08:50:13;;;;;;;28.92;9.15;;;7.90;99.90;;;;;;4994180;28;20478;-64
2022/01/27 08:52:39;;;;;;;32.38;7.82;;;7.90;99.90;;;;;;4992282;28;20067;-64
2022/01/27 08:55:06;;;;;;;38.72;8.88;;;8.00;99.90;;;;;;4994316;28;20406;-64
2022/01/27 08:57:32;;;;;;;38.65;9.00;;;7.90;99.90;;;;;;4990894;28;20486;-64
2022/01/27 08:59:58;;;;;;;46.05;9.02;;;7.90;99.90;;;;;;4992539;28;20050;-64
2022/01/27 09:02:24;;;;;;;31.40;9.80;;;7.90;99.90;;;;;;5009420;28;20046;-64
2022/01/27 09:04:50;;;;;;;33.08;8.32;;;8.00;99.90;;;;;;5008271;28;20081;-65
2022/01/27 09:07:16;;;;;;;36.25;7.82;;;7.90;99.90;;;;;;4995964;28;20128;-64
2022/01/27 09:09:43;;;;;;;30.35;8.02;;;8.00;99.90;;;;;;4989954;28;20557;-64
2022/01/27 09:12:09;;;;;;;42.55;8.88;;;8.00;99.90;;;;;;4991646;28;20082;-64
2022/01/27 09:14:35;;;;;;;40.72;8.45;;;8.10;99.90;;;;;;4993699;28;20041;-64
2022/01/27 09:17:01;;;;;;;28.85;9.52;;;8.10;99.90;;;;;;5006997;28;20041;-64
2022/01/27 09:19:27;;;;;;;29.55;7.20;;;8.10;99.90;;;;;;4989263;28;20049;-64
2022/01/27 09:21:54;;;;;;;50.47;10.95;;;8.10;99.90;;;;;;5007786;28;20397;-65
2022/01/27 09:24:26;;;;;;;29.00;6.85;;;8.20;99.90;;;;;;5008299;28;20069;-64
2022/01/27 09:27:00;;;;;;;27.23;7.60;;;8.20;99.90;;;;;;5000896;28;20038;-64
2022/01/27 09:29:27;;;;;;;31.58;7.63;;;8.30;99.90;;;;;;4988785;28;20121;-64
2022/01/27 09:31:52;;;;;;;31.10;7.13;;;8.40;99.90;;;;;;4989610;28;20034;-64
2022/01/27 09:34:19;;;;;;;28.65;7.10;;;8.40;99.90;;;;;;4992654;28;20050;-64
2022/01/27 09:36:46;;;;;;;35.05;6.65;;;8.40;99.90;;;;;;4988319;28;20680;-64
2022/01/27 09:39:14;;;;;;;33.60;8.35;;;8.50;99.90;;;;;;4998250;28;20072;-64
2022/01/27 09:41:41;;;;;;;28.48;8.30;;;8.60;99.90;;;;;;4993509;28;20092;-64
2022/01/27 09:44:10;;;;;;;37.25;7.00;;;8.60;99.90;;;;;;4990747;28;20125;-64
2022/01/27 09:46:36;;;;;;;24.05;6.07;;;8.70;99.90;;;;;;5002077;28;20104;-64
2022/01/27 09:49:11;;;;;;;32.03;10.43;;;8.70;99.90;;;;;;5006754;28;20041;-64
2022/01/27 09:51:43;;;;;;;25.88;5.45;;;8.70;99.90;;;;;;4996841;28;20058;-64
2022/01/27 09:54:09;;;;;;;26.80;6.00;;;8.80;99.90;;;;;;4990953;28;20034;-64
2022/01/27 09:56:35;;;;;;;34.97;7.55;;;8.90;99.90;;;;;;4990750;28;20093;-64
2022/01/27 09:59:02;;;;;;;19.55;6.93;;;8.90;99.90;;;;;;4987993;28;20048;-65
2022/01/27 10:01:28;;;;;;;25.70;5.97;;;9.00;99.90;;;;;;4996317;28;20057;-64
2022/01/27 10:04:07;;;;;;;29.98;5.95;;;9.00;99.90;;;;;;4999217;28;20037;-65
2022/01/27 10:06:34;;;;;;;28.77;6.88;;;8.90;99.90;;;;;;5007781;28;20050;-64
2022/01/27 10:09:19;;;;;;;29.13;6.55;;;8.90;99.90;;;;;;5002069;28;20042;-64
2022/01/27 10:11:47;;;;;;;39.22;7.55;;;8.90;99.90;;;;;;5001878;28;20152;-64
2022/01/27 10:14:27;;;;;;;39.00;8.30;;;8.90;99.90;;;;;;5007567;28;20041;-63
2022/01/27 10:16:55;;;;;;;31.23;5.97;;;8.90;99.90;;;;;;4998190;28;20807;-64
2022/01/27 10:19:22;;;;;;;39.10;9.07;;;9.00;99.90;;;;;;4998157;28;20046;-64
2022/01/27 10:21:49;;;;;;;27.85;6.07;;;9.00;99.90;;;;;;5007404;28;20137;-64
2022/01/27 10:24:27;;;;;;;26.85;6.75;;;9.00;99.90;;;;;;4996016;28;20051;-64
2022/01/27 10:27:29;;;;;;;33.60;7.43;;;9.10;99.90;;;;;;5002721;28;20052;-64
2022/01/27 10:32:45;;;;;;;29.02;7.47;;;9.20;99.90;;;;;;4994350;28;20071;-63
2022/01/27 10:35:14;;;;;;;31.90;6.43;;;9.20;99.90;;;;;;4992995;28;20056;-64
2022/01/27 10:38:05;;;;;;;32.55;5.93;;;9.30;99.90;;;;;;5007901;28;20061;-64
2022/01/27 10:40:41;;;;;;;24.17;6.13;;;9.30;99.90;;;;;;4998590;28;20049;-64
2022/01/27 10:43:10;;;;;;;31.55;7.47;;;9.30;99.90;;;;;;5000675;28;20057;-64
2022/01/27 10:45:40;;;;;;;29.85;7.38;;;9.30;99.90;;;;;;5007743;28;20425;-63
2022/01/27 10:48:12;;;;;;;25.23;6.03;;;9.40;99.90;;;;;;4998802;28;20494;-64
2022/01/27 10:50:48;;;;;;;30.95;6.20;;;9.40;99.90;;;;;;5000946;28;20060;-64
2022/01/27 10:53:14;;;;;;;40.40;8.02;;;9.30;99.90;;;;;;5010844;28;20119;-63
2022/01/27 10:55:40;;;;;;;24.98;7.15;;;9.30;99.90;;;;;;5011092;28;20093;-64
2022/01/27 10:58:27;;;;;;;33.28;7.00;;;9.30;99.90;;;;;;5001824;28;20137;-64
2022/01/27 11:01:00;;;;;;;28.42;5.60;;;9.20;99.90;;;;;;5011297;28;20095;-64
2022/01/27 11:03:28;;;;;;;28.08;6.45;;;9.20;99.90;;;;;;5011934;28;20498;-63
2022/01/27 11:05:56;;;;;;;37.88;7.05;;;9.20;99.90;;;;;;4997509;28;20089;-63
2022/01/27 11:08:24;;;;;;;29.30;6.60;;;9.20;99.90;;;;;;4992252;28;20073;-64
2022/01/27 11:10:51;;;;;;;27.27;6.20;;;9.30;99.90;;;;;;4991940;28;20050;-64
2022/01/27 11:13:19;;;;;;;29.15;6.82;;;9.30;99.90;;;;;;4990530;28;20050;-64
2022/01/27 11:15:45;;;;;;;40.45;8.70;;;9.30;99.90;;;;;;4991490;28;20771;-64
2022/01/27 11:18:13;;;;;;;35.03;8.65;;;9.30;99.90;;;;;;4990753;28;20046;-64
2022/01/27 11:21:02;;;;;;;35.72;6.75;;;9.30;99.90;;;;;;4995294;28;20073;-64
2022/01/27 11:24:02;;;;;;;25.00;6.15;;;9.30;99.90;;;;;;4993061;28;20046;-64
2022/01/27 11:26:29;;;;;;;33.90;6.53;;;9.40;99.90;;;;;;5002491;28;20555;-63
2022/01/27 11:28:57;;;;;;;26.73;6.20;;;9.40;99.90;;;;;;5008887;28;20073;-64
2022/01/27 11:31:47;;;;;;;33.70;6.25;;;9.50;99.90;;;;;;4995894;28;20050;-64
2022/01/27 11:34:13;;;;;;;25.65;5.80;;;9.60;99.90;;;;;;4993295;28;20060;-63
2022/01/27 11:37:00;;;;;;;31.88;6.60;;;9.70;99.90;;;;;;4993184;28;20502;-64
2022/01/27 11:39:53;;;;;;;25.08;5.70;;;9.80;99.90;;;;;;4989518;28;20904;-64
2022/01/27 11:42:35;;;;;;;27.27;5.80;;;9.70;99.90;;;;;;4990220;28;20782;-63
2022/01/27 11:45:41;;;;;;;27.98;6.03;;;9.70;99.90;;;;;;4996157;28;20737;-63
2022/01/27 11:48:18;;;;;;;27.98;5.78;;;9.70;99.90;;;;;;5006480;28;20501;-63
2022/01/27 11:50:54;;;;;;;26.48;6.72;;;9.70;99.90;;;;;;4994152;28;20069;-63
2022/01/27 11:53:33;;;;;;;39.05;7.10;;;9.60;99.90;;;;;;4990570;28;20062;-63
2022/01/27 11:56:01;;;;;;;30.30;6.50;;;9.70;99.90;;;;;;5004994;28;20046;-63
2022/01/27 11:58:28;;;;;;;29.48;5.80;;;9.60;99.90;;;;;;4995221;28;20061;-63
2022/01/27 12:01:06;;;;;;;38.55;6.10;;;9.60;99.90;;;;;;4996675;28;20050;-64
2022/01/27 12:03:32;;;;;;;27.83;5.22;;;9.60;99.90;;;;;;4991019;28;20081;-64
2022/01/27 12:06:21;;;;;;;28.45;6.10;;;9.60;99.90;;;;;;4997985;28;20085;-64
2022/01/27 12:08:47;;;;;;;33.63;5.55;;;9.60;99.90;;;;;;5006681;28;20100;-64
2022/01/27 12:11:42;;;;;;;29.63;6.43;;;9.60;99.90;;;;;;4991611;28;20054;-64
2022/01/27 12:14:08;;;;;;;33.50;6.25;;;9.70;99.90;;;;;;5002262;28;20379;-64
2022/01/27 12:19:01;;;;;;;30.92;6.13;;;9.80;99.90;;;;;;4990200;28;20092;-64
2022/01/27 12:21:38;;;;;;;32.67;7.85;;;9.90;99.90;;;;;;4991139;28;20058;-64
2022/01/27 12:27:01;;;;;;;29.30;5.13;;;9.80;99.90;;;;;;5005693;28;20053;-63
2022/01/27 12:29:45;;;;;;;33.10;6.70;;;9.90;99.90;;;;;;4995690;28;20192;-63
2022/01/27 12:32:17;;;;;;;36.75;6.97;;;9.80;99.90;;;;;;4993785;28;20490;-64
2022/01/27 12:34:54;;;;;;;26.13;6.22;;;9.90;99.90;;;;;;5001033;28;20121;-64
2022/01/27 12:37:23;;;;;;;33.42;6.10;;;9.90;99.90;;;;;;5009471;28;20069;-63
2022/01/27 12:39:53;;;;;;;38.33;8.00;;;9.90;99.90;;;;;;5007950;28;20045;-64
2022/01/27 12:42:19;;;;;;;32.63;5.82;;;10.00;99.90;;;;;;4990484;28;20093;-63
2022/01/27 12:44:56;;;;;;;25.75;6.78;;;10.00;99.90;;;;;;5000484;28;20058;-63
2022/01/27 12:47:23;;;;;;;29.15;6.93;;;10.00;99.90;;;;;;4991729;28;20116;-64
2022/01/27 12:49:59;;;;;;;31.20;7.18;;;10.00;99.90;;;;;;4990519;28;20046;-64
2022/01/27 12:52:29;;;;;;;24.85;6.15;;;10.10;99.90;;;;;;4990791;28;20100;-64
2022/01/27 12:54:54;;;;;;;25.60;5.68;;;10.40;99.90;;;;;;4990403;28;20132;-63
2022/01/27 12:57:29;;;;;;;35.90;6.10;;;10.50;99.90;;;;;;4988794;28;20169;-64
2022/01/27 12:59:56;;;;;;;23.75;6.43;;;10.80;99.90;;;;;;4988540;28;20137;-64
2022/01/27 13:02:25;;;;;;;33.50;7.38;;;11.00;99.90;;;;;;4989412;28;20254;-64
2022/01/27 13:05:01;;;;;;;27.95;6.55;;;11.20;99.90;;;;;;4991384;28;20117;-64
2022/01/27 13:07:28;;;;;;;30.58;5.13;;;11.50;99.90;;;;;;4992297;28;20053;-64
2022/01/27 13:09:57;;;;;;;31.50;5.70;;;11.70;99.90;;;;;;4990052;28;20406;-64
2022/01/27 13:12:28;;;;;;;32.42;6.90;;;11.50;99.90;;;;;;4988461;28;20077;-63
2022/01/27 13:15:03;;;;;;;25.85;5.05;;;11.40;99.90;;;;;;4991889;28;20046;-63
2022/01/27 13:17:49;;;;;;;26.67;5.65;;;11.10;99.90;;;;;;5004374;28;20053;-63
2022/01/27 13:23:09;;;;;;;29.42;6.30;;;10.70;99.90;;;;;;4992963;28;20042;-63
2022/01/27 13:25:51;;;;;;;38.95;6.35;;;10.60;99.90;;;;;;4998972;28;20125;-64
2022/01/27 13:28:50;;;;;;;27.05;5.57;;;10.60;99.90;;;;;;4988896;28;20086;-64
2022/01/27 13:31:16;;;;;;;28.65;5.38;;;10.50;99.90;;;;;;4987953;28;20089;-64
2022/01/27 13:33:45;;;;;;;33.35;6.75;;;10.40;99.90;;;;;;4999132;28;20046;-63
2022/01/27 13:36:22;;;;;;;32.08;7.05;;;10.30;99.90;;;;;;4996961;28;20085;-64
2022/01/27 13:39:03;;;;;;;49.40;9.13;;;10.20;99.90;;;;;;4988925;28;20140;-64